Time;durP1;ratioP1;P1;durP2;ratioP2;P2;SDS_P1;SDS_P2;PMS_P1;PMS_P2;Temp;Humidity;BMP_temperature;BMP_pressure;BME280_temperature;BME280_humidity;BME280_pressure;Samples;Min_cycle;Max_cycle;Signal;HPM_P1;HPM_P2
2021/07/12 00:00:24;;;;;;;10.93;8.50;;;;;;;15.77;100.00;101333.40;1970566;72;32988;-74
2021/07/12 00:05:49;;;;;;;11.20;9.30;;;;;;;15.76;100.00;101339.56;1972080;72;32953;-76
2021/07/12 00:11:33;;;;;;;9.60;8.50;;;;;;;15.97;100.00;101351.79;1946447;74;33639;-70
2021/07/12 00:16:58;;;;;;;12.30;9.87;;;;;;;15.97;100.00;101345.62;1970721;72;32878;-74
2021/07/12 00:22:22;;;;;;;11.13;8.70;;;;;;;15.94;100.00;101349.05;1959325;71;33098;-70
2021/07/12 00:27:46;;;;;;;12.23;10.47;;;;;;;15.89;100.00;101352.77;1971013;73;32873;-70
2021/07/12 00:33:12;;;;;;;10.57;8.97;;;;;;;15.84;100.00;101357.62;1970511;73;32997;-75
2021/07/12 00:38:38;;;;;;;11.40;9.50;;;;;;;15.83;100.00;101357.39;1972055;73;31514;-76
2021/07/12 00:44:05;;;;;;;10.20;8.60;;;;;;;15.80;100.00;101336.98;1970560;73;33530;-70
2021/07/12 00:49:31;;;;;;;10.70;8.90;;;;;;;15.97;100.00;101328.80;1970720;73;32936;-74
2021/07/12 00:54:55;;;;;;;9.40;8.33;;;;;;;15.80;100.00;101318.77;1970726;73;33381;-70
2021/07/12 01:00:25;;;;;;;10.23;7.97;;;;;;;15.75;100.00;101319.69;1972061;72;32977;-76
2021/07/12 01:05:50;;;;;;;8.77;7.50;;;;;;;15.80;100.00;101315.40;1971071;72;33404;-70
2021/07/12 01:11:21;;;;;;;10.07;7.63;;;;;;;15.64;100.00;101316.83;1970703;72;32970;-70
2021/07/12 01:16:53;;;;;;;9.03;7.77;;;;;;;15.62;100.00;101307.05;1972333;72;32999;-76
2021/07/12 01:22:45;;;;;;;11.13;8.00;;;;;;;15.71;100.00;101308.84;1938699;74;33451;-76
2021/07/12 01:28:59;;;;;;;8.70;7.43;;;;;;;15.89;100.00;101308.52;1972233;72;32937;-76
2021/07/12 01:32:16;;;;;;;9.60;8.47;;;;;;;15.76;100.00;101316.33;1947419;74;26270;-75
2021/07/12 01:34:52;;;;;;;8.63;7.70;;;;;;;15.75;100.00;101310.45;1947353;74;26325;-74
2021/07/12 01:40:24;;;;;;;11.27;9.30;;;;;;;15.71;100.00;101303.81;1972294;72;32860;-76
2021/07/12 01:45:57;;;;;;;9.33;8.30;;;;;;;15.73;100.00;101309.38;1970583;72;32970;-71
2021/07/12 01:48:34;;;;;;;10.03;8.40;;;;;;;15.82;100.00;101318.73;1946460;74;26766;-71
2021/07/12 01:51:07;;;;;;;10.17;7.97;;;;;;;15.71;100.00;101315.84;1946459;74;26209;-76
2021/07/12 01:53:42;;;;;;;9.93;8.30;;;;;;;15.73;100.00;101306.58;1946424;74;26245;-71
2021/07/12 01:56:16;;;;;;;8.33;7.43;;;;;;;15.62;100.00;101305.09;1946378;74;26716;-76
2021/07/12 01:58:49;;;;;;;10.60;8.17;;;;;;;15.70;100.00;101299.38;1946260;74;26357;-71
2021/07/12 02:01:22;;;;;;;9.33;8.07;;;;;;;15.62;100.00;101312.09;1945982;74;24283;-72
2021/07/12 02:06:48;;;;;;;13.03;9.67;;;;;;;15.63;100.00;101291.92;1971116;73;33338;-74
2021/07/12 02:12:16;;;;;;;9.70;8.70;;;;;;;15.66;100.00;101285.73;1972284;73;32894;-76
2021/07/12 02:17:43;;;;;;;13.20;9.77;;;;;;;15.70;100.00;101283.38;1972380;73;33346;-76
2021/07/12 02:23:11;;;;;;;11.77;9.80;;;;;;;15.71;100.00;101273.00;1970688;72;33599;-70
2021/07/12 02:28:41;;;;;;;12.93;10.37;;;;;;;15.71;100.00;101278.60;1972409;72;31408;-74
2021/07/12 02:34:06;;;;;;;14.10;10.40;;;;;;;15.74;100.00;101271.84;1970705;72;30955;-74
2021/07/12 02:39:35;;;;;;;13.83;10.57;;;;;;;15.71;100.00;101268.80;1972031;73;32938;-76
2021/07/12 02:45:02;;;;;;;16.03;11.80;;;;;;;15.78;100.00;101271.48;1972097;73;32996;-76
2021/07/12 02:50:28;;;;;;;17.90;12.70;;;;;;;15.86;100.00;101274.95;1972366;71;33527;-76
2021/07/12 02:55:53;;;;;;;18.47;12.90;;;;;;;15.88;100.00;101266.22;1972303;72;33420;-76
2021/07/12 03:01:17;;;;;;;18.00;13.10;;;;;;;15.70;100.00;101258.77;1970776;73;33060;-74
2021/07/12 03:06:49;;;;;;;21.33;12.93;;;;;;;15.80;100.00;101251.54;1972304;73;33434;-75
2021/07/12 03:12:19;;;;;;;17.83;12.53;;;;;;;15.70;100.00;101230.75;1972099;72;32904;-76
2021/07/12 03:14:53;;;;;;;20.50;12.20;;;;;;;15.64;100.00;101243.18;1947261;74;24202;-75
2021/07/12 03:20:20;;;;;;;14.80;10.80;;;;;;;15.76;100.00;101233.70;1972193;72;32910;-75
2021/07/12 03:25:49;;;;;;;15.80;11.10;;;;;;;15.64;100.00;101236.18;1972257;72;32960;-76
2021/07/12 03:31:15;;;;;;;16.83;11.97;;;;;;;15.73;100.00;101229.55;1970982;72;33478;-70
2021/07/12 03:36:42;;;;;;;17.90;12.00;;;;;;;15.71;100.00;101233.79;1970670;73;33057;-74
2021/07/12 03:42:08;;;;;;;16.73;11.70;;;;;;;15.70;100.00;101218.15;1972182;72;30980;-76
2021/07/12 03:47:37;;;;;;;18.57;12.17;;;;;;;15.69;100.00;101220.69;1972412;72;33386;-75
2021/07/12 03:53:04;;;;;;;16.17;12.33;;;;;;;15.63;100.00;101219.11;1970791;72;32964;-70
2021/07/12 03:58:30;;;;;;;16.20;11.70;;;;;;;15.70;100.00;101223.16;1972138;72;32930;-75
2021/07/12 04:04:14;;;;;;;14.90;11.33;;;;;;;15.67;100.00;101226.58;1946471;74;33507;-70
2021/07/12 04:09:39;;;;;;;15.83;12.07;;;;;;;15.67;100.00;101218.19;1972107;72;32985;-75
2021/07/12 04:15:05;;;;;;;18.10;11.67;;;;;;;15.64;100.00;101210.98;1972169;72;32970;-75
2021/07/12 04:20:37;;;;;;;13.17;10.00;;;;;;;15.65;100.00;101216.84;1972249;72;33386;-76
2021/07/12 04:26:21;;;;;;;11.60;9.07;;;;;;;15.58;100.00;101219.20;1947793;74;33076;-75
2021/07/12 04:31:45;;;;;;;9.97;8.30;;;;;;;15.51;100.00;101221.59;1972096;72;32875;-76
2021/07/12 04:37:09;;;;;;;9.87;8.00;;;;;;;15.54;100.00;101219.56;1970844;73;33478;-74
2021/07/12 04:42:34;;;;;;;11.67;8.37;;;;;;;15.54;100.00;101216.20;1972158;72;32965;-76
2021/07/12 04:47:58;;;;;;;9.80;8.00;;;;;;;15.54;100.00;101210.59;1970903;72;32943;-70
2021/07/12 04:53:23;;;;;;;9.67;7.37;;;;;;;15.56;100.00;101200.50;1970567;73;32955;-70
2021/07/12 04:58:48;;;;;;;8.50;6.83;;;;;;;15.69;100.00;101198.28;1970916;72;32863;-75
2021/07/12 05:04:12;;;;;;;7.63;6.77;;;;;;;15.56;100.00;101185.94;1970794;73;32966;-70
2021/07/12 05:09:37;;;;;;;8.40;6.80;;;;;;;15.61;100.00;101186.41;1970655;72;31034;-70
2021/07/12 05:15:06;;;;;;;8.57;7.67;;;;;;;15.54;100.00;101187.37;1970743;72;33447;-70
2021/07/12 05:20:34;;;;;;;8.07;6.83;;;;;;;15.63;100.00;101199.51;1972063;72;32928;-75
2021/07/12 05:25:59;;;;;;;8.53;6.70;;;;;;;15.66;100.00;101196.11;1970698;72;33549;-70
2021/07/12 05:31:23;;;;;;;9.23;6.70;;;;;;;15.62;100.00;101192.24;1970705;73;33498;-70
2021/07/12 05:36:48;;;;;;;8.23;6.50;;;;;;;15.60;100.00;101191.17;1970582;73;32988;-70
2021/07/12 05:42:13;;;;;;;9.17;7.17;;;;;;;15.75;100.00;101199.25;1970525;73;33388;-72
2021/07/12 05:47:37;;;;;;;7.67;6.70;;;;;;;15.83;100.00;101188.71;1970829;73;30990;-75
2021/07/12 05:53:03;;;;;;;10.53;7.50;;;;;;;15.81;100.00;101190.18;1970864;72;33429;-69
2021/07/12 05:58:27;;;;;;;11.27;6.90;;;;;;;15.83;100.00;101190.71;1970451;72;32909;-73
2021/07/12 06:03:52;;;;;;;8.30;6.60;;;;;;;15.78;100.00;101183.81;1970852;73;33522;-74
2021/07/12 06:09:17;;;;;;;9.27;7.83;;;;;;;15.73;100.00;101187.55;1970588;72;32867;-74
2021/07/12 06:14:42;;;;;;;8.90;7.50;;;;;;;15.73;100.00;101186.71;1971992;72;32971;-76
2021/07/12 06:22:56;;;;;;;12.13;8.00;;;;;;;15.75;100.00;101176.01;1975547;72;33309;-74
2021/07/12 06:25:26;;;;;;;9.37;7.63;;;;;;;15.76;100.00;101188.88;1879925;76;26685;-74
2021/07/12 06:27:59;;;;;;;10.10;7.97;;;;;;;15.78;100.00;101187.44;1950534;73;26217;-74
2021/07/12 06:30:30;;;;;;;10.77;7.87;;;;;;;15.74;100.00;101199.02;1950528;73;26714;-70
2021/07/12 06:33:00;;;;;;;12.53;9.17;;;;;;;15.84;100.00;101200.19;1950751;73;26392;-74
2021/07/12 06:35:31;;;;;;;11.07;9.13;;;;;;;15.93;100.00;101205.31;1950209;73;26665;-75
2021/07/12 06:38:01;;;;;;;10.67;7.97;;;;;;;15.85;100.00;101192.62;1950469;73;26245;-69
2021/07/12 06:40:31;;;;;;;12.30;8.30;;;;;;;15.94;100.00;101196.34;1950702;73;24176;-75
2021/07/12 06:43:02;;;;;;;11.53;8.97;;;;;;;15.89;100.00;101185.24;1950286;73;26301;-70
2021/07/12 06:45:32;;;;;;;11.00;9.27;;;;;;;15.91;100.00;101188.58;1950247;73;26812;-70
2021/07/12 06:48:02;;;;;;;9.97;8.80;;;;;;;16.00;100.00;101185.30;1950429;73;26326;-69
2021/07/12 06:50:32;;;;;;;10.87;8.23;;;;;;;16.12;100.00;101186.98;1950289;73;26698;-75
2021/07/12 06:53:02;;;;;;;11.53;9.10;;;;;;;16.03;100.00;101183.83;1950290;73;26700;-75
2021/07/12 06:55:32;;;;;;;11.80;9.10;;;;;;;16.18;100.00;101187.11;1950437;73;26210;-75
2021/07/12 06:58:04;;;;;;;10.07;8.47;;;;;;;16.08;100.00;101181.75;1950499;73;26222;-75
2021/07/12 07:00:35;;;;;;;9.70;8.33;;;;;;;16.06;100.00;101174.79;1950382;73;26246;-75
2021/07/12 07:03:05;;;;;;;11.17;8.70;;;;;;;16.12;100.00;101165.14;1950413;73;26237;-70
2021/07/12 07:05:35;;;;;;;11.73;8.37;;;;;;;16.08;100.00;101160.73;1950335;73;26311;-74
2021/07/12 07:08:06;;;;;;;12.23;9.27;;;;;;;16.17;100.00;101157.42;1950414;73;26270;-75
2021/07/12 07:10:36;;;;;;;13.10;10.03;;;;;;;16.17;100.00;101160.22;1950378;73;26191;-74
2021/07/12 07:13:06;;;;;;;13.43;11.10;;;;;;;16.20;100.00;101156.81;1950261;73;24128;-75
2021/07/12 07:15:36;;;;;;;15.33;11.47;;;;;;;16.16;100.00;101159.98;1950427;73;26712;-70
2021/07/12 07:18:07;;;;;;;17.23;13.50;;;;;;;16.21;100.00;101157.08;1950259;73;26233;-74
2021/07/12 07:20:37;;;;;;;20.97;13.30;;;;;;;16.27;100.00;101157.77;1943805;73;26299;-74
2021/07/12 07:23:07;;;;;;;16.90;12.40;;;;;;;16.34;100.00;101159.58;1908644;73;26715;-70
2021/07/12 07:25:37;;;;;;;14.97;11.87;;;;;;;16.24;100.00;101159.23;1916528;75;24142;-70
2021/07/12 07:28:08;;;;;;;14.10;11.57;;;;;;;16.42;100.00;101167.23;1904135;75;26315;-71
2021/07/12 07:33:32;;;;;;;12.63;10.23;;;;;;;16.44;100.00;101159.89;1970580;72;33059;-73
2021/07/12 07:38:57;;;;;;;11.07;9.07;;;;;;;16.49;100.00;101163.98;1970642;72;33454;-77
2021/07/12 07:44:22;;;;;;;10.83;8.53;;;;;;;16.51;100.00;101165.91;1972043;72;33048;-79
2021/07/12 07:49:47;;;;;;;11.90;8.33;;;;;;;16.79;100.00;101159.88;1970443;72;31080;-70
2021/07/12 07:55:13;;;;;;;10.37;7.60;;;;;;;16.74;100.00;101150.76;1970601;73;32963;-76
2021/07/12 08:00:38;;;;;;;6.70;6.10;;;;;;;16.71;100.00;101148.03;1970807;72;32948;-71
2021/07/12 08:06:03;;;;;;;8.50;6.07;;;;;;;16.85;100.00;101154.98;1970558;73;30965;-75
2021/07/12 08:11:27;;;;;;;6.47;5.77;;;;;;;17.15;100.00;101153.34;1970364;73;30993;-71
2021/07/12 08:16:52;;;;;;;6.40;5.53;;;;;;;17.42;100.00;101149.48;1972272;72;31441;-76
2021/07/12 08:22:17;;;;;;;6.40;5.53;;;;;;;17.49;100.00;101152.11;1970576;71;33070;-70
2021/07/12 08:27:42;;;;;;;5.70;5.10;;;;;;;17.60;100.00;101154.89;1970953;72;33077;-71
2021/07/12 08:33:08;;;;;;;5.73;3.77;;;;;;;17.63;100.00;101156.21;1970692;73;31074;-71
2021/07/12 08:38:33;;;;;;;3.77;3.40;;;;;;;17.62;100.00;101155.98;1970603;72;30998;-69
2021/07/12 08:43:57;;;;;;;3.50;3.20;;;;;;;17.47;100.00;101152.99;1970708;72;31537;-71
2021/07/12 08:49:23;;;;;;;4.17;3.80;;;;;;;17.91;100.00;101146.97;1970453;73;30989;-74
2021/07/12 08:54:47;;;;;;;3.60;2.90;;;;;;;18.38;100.00;101133.95;1970517;72;31002;-70
2021/07/12 09:00:13;;;;;;;4.03;2.70;;;;;;;18.26;100.00;101138.84;1970669;73;32295;-70
2021/07/12 09:05:53;;;;;;;2.23;2.03;;;;;;;18.70;100.00;101141.91;1970512;72;30924;-71
2021/07/12 09:11:42;;;;;;;2.73;2.10;;;;;;;18.87;100.00;101136.25;1970793;72;31404;-72
2021/07/12 09:17:08;;;;;;;2.07;1.87;;;;;;;18.95;100.00;101139.66;1970858;72;33472;-71
2021/07/12 09:22:35;;;;;;;2.77;2.10;;;;;;;19.51;100.00;101134.25;1958441;71;31561;-73
2021/07/12 09:28:03;;;;;;;3.13;2.50;;;;;;;19.79;100.00;101137.44;1970431;73;30989;-70
2021/07/12 09:33:29;;;;;;;5.67;2.47;;;;;;;19.77;100.00;101134.70;1970424;72;30916;-74
2021/07/12 09:39:25;;;;;;;2.00;1.90;;;;;;;19.83;100.00;101115.03;1970452;73;31138;-73
2021/07/12 09:44:51;;;;;;;2.00;1.90;;;;;;;19.75;100.00;101107.45;1970901;73;30945;-73
2021/07/12 09:50:18;;;;;;;5.33;2.67;;;;;;;19.82;100.00;101104.33;1970853;72;30928;-70
2021/07/12 09:55:45;;;;;;;2.83;2.40;;;;;;;20.09;100.00;101104.98;1970431;73;30966;-73
2021/07/12 10:01:11;;;;;;;2.57;2.37;;;;;;;20.12;100.00;101094.41;1970793;72;31154;-74
2021/07/12 10:06:37;;;;;;;2.93;2.63;;;;;;;20.24;100.00;101093.06;1970790;73;31541;-71
2021/07/12 10:12:01;;;;;;;2.77;2.10;;;;;;;20.04;100.00;101091.91;1970562;72;31018;-74
2021/07/12 10:17:27;;;;;;;2.97;2.40;;;;;;;20.47;100.00;101091.59;1970712;73;31087;-73
2021/07/12 10:22:52;;;;;;;2.80;1.93;;;;;;;20.33;100.00;101086.80;2061481;69;30826;-70
2021/07/12 10:28:17;;;;;;;3.23;2.20;;;;;;;20.13;100.00;101071.52;1970754;72;30924;-70
2021/07/12 10:33:42;;;;;;;3.03;2.03;;;;;;;20.28;100.00;101065.85;1970905;73;31555;-73
2021/07/12 10:39:07;;;;;;;2.23;1.80;;;;;;;20.04;100.00;101062.88;1970720;72;30915;-71
2021/07/12 10:45:12;;;;;;;2.00;1.80;;;;;;;20.55;100.00;101060.21;1970825;72;30974;-71
2021/07/12 10:50:47;;;;;;;2.40;1.83;;;;;;;21.12;100.00;101054.59;1970649;73;31068;-72
2021/07/12 10:56:58;;;;;;;2.20;2.00;;;;;;;21.19;100.00;101054.86;1970557;72;31011;-70
2021/07/12 11:02:33;;;;;;;2.60;2.13;;;;;;;21.12;100.00;101055.45;1970638;72;31096;-73
2021/07/12 11:08:06;;;;;;;3.40;2.57;;;;;;;20.97;100.00;101055.27;1970373;73;30973;-71
2021/07/12 11:13:50;;;;;;;2.13;1.93;;;;;;;20.66;100.00;101050.16;1970845;72;30940;-72
2021/07/12 11:19:24;;;;;;;2.05;1.87;;;;;;;20.68;100.00;101038.73;1970712;73;31460;-72
2021/07/12 11:25:09;;;;;;;1.40;1.30;;;;;;;21.07;100.00;101028.81;1946252;74;31073;-72
2021/07/12 11:30:35;;;;;;;1.95;1.82;;;;;;;21.09;100.00;101022.82;1970651;72;31451;-73
2021/07/12 11:36:00;;;;;;;2.33;1.73;;;;;;;21.28;100.00;101011.19;1970291;72;30990;-71
2021/07/12 11:41:23;;;;;;;2.83;2.10;;;;;;;;;;1970636;72;31040;-71
2021/07/12 11:44:07;;;;;;;1.72;1.62;;;;;;;21.37;100.00;101024.38;1946142;74;24246;-70
2021/07/12 11:49:32;;;;;;;2.20;2.00;;;;;;;21.02;100.00;101020.56;1970756;73;31467;-71
2021/07/12 11:55:00;;;;;;;2.40;2.20;;;;;;;20.67;100.00;101018.73;1970528;72;31566;-71
2021/07/12 12:07:40;;;;;;;2.67;2.47;;;;;;;21.14;100.00;101000.00;1970356;72;30932;-71
2021/07/12 12:13:14;;;;;;;1.90;1.80;;;;;;;21.51;100.00;100999.41;1970411;73;31414;-73
2021/07/12 12:18:41;;;;;;;2.27;2.08;;;;;;;21.59;100.00;100993.63;1970308;72;30970;-75
2021/07/12 12:24:11;;;;;;;2.30;2.10;;;;;;;21.59;100.00;100992.80;1970369;73;31112;-75
2021/07/12 12:29:36;;;;;;;1.93;1.80;;;;;;;21.47;100.00;100995.05;1970253;72;31072;-71
2021/07/12 12:35:04;;;;;;;2.60;2.30;;;;;;;21.23;100.00;101005.77;1970467;72;31612;-70
2021/07/12 12:40:36;;;;;;;2.40;2.10;;;;;;;21.27;100.00;101005.30;1970604;72;31121;-72
2021/07/12 12:46:08;;;;;;;2.60;1.87;;;;;;;21.33;100.00;101020.02;1970566;73;30933;-71
2021/07/12 12:51:35;;;;;;;3.05;1.57;;;;;;;21.07;100.00;101023.74;1970578;72;31010;-71
2021/07/12 12:57:07;;;;;;;2.40;1.57;;;;;;;21.16;100.00;101014.61;1970311;72;31040;-72
2021/07/12 13:02:38;;;;;;;1.67;1.57;;;;;;;21.68;100.00;101001.97;1970698;72;30923;-71
2021/07/12 13:08:06;;;;;;;4.40;1.50;;;;;;;21.95;100.00;100986.27;1970591;72;31122;-72
2021/07/12 13:13:32;;;;;;;1.85;1.60;;;;;;;22.21;100.00;100979.53;1970282;73;30902;-70
2021/07/12 13:19:08;;;;;;;1.65;1.55;;;;;;;22.44;100.00;100976.95;1970376;72;30998;-71
2021/07/12 13:24:49;;;;;;;1.90;1.60;;;;;;;22.33;100.00;100981.50;1970517;72;31501;-71
2021/07/12 13:30:23;;;;;;;1.87;1.60;;;;;;;22.33;100.00;100978.08;1970309;73;31065;-72
2021/07/12 13:35:49;;;;;;;1.30;1.20;;;;;;;22.07;100.00;100989.05;1970533;72;31021;-72
2021/07/12 13:41:13;;;;;;;2.40;1.47;;;;;;;22.13;100.00;100979.92;1970384;73;31004;-70
2021/07/12 13:46:38;;;;;;;1.60;1.50;;;;;;;22.27;100.00;100980.11;1970562;72;31048;-70
2021/07/12 13:52:02;;;;;;;2.08;1.60;;;;;;;22.44;100.00;100976.95;1970669;73;31531;-72
2021/07/12 13:57:27;;;;;;;2.17;1.98;;;;;;;22.16;100.00;100980.61;1970565;73;31522;-71
2021/07/12 14:02:51;;;;;;;3.33;1.90;;;;;;;21.95;100.00;100979.19;1970434;72;30961;-70
2021/07/12 14:08:17;;;;;;;2.65;2.45;;;;;;;21.86;100.00;100975.66;1970602;73;31526;-71
2021/07/12 14:13:41;;;;;;;3.58;2.60;;;;;;;22.26;100.00;100966.55;1970326;72;31094;-72
2021/07/12 14:19:06;;;;;;;2.55;2.10;;;;;;;22.07;100.00;100977.14;1970405;72;31017;-71
2021/07/12 14:24:30;;;;;;;2.37;2.17;;;;;;;21.97;100.00;100977.64;1970245;73;31496;-72
2021/07/12 14:29:55;;;;;;;3.05;2.33;;;;;;;22.14;100.00;100969.44;1970521;72;30986;-73
2021/07/12 14:35:22;;;;;;;3.10;1.98;;;;;;;22.19;100.00;100962.11;1970496;72;30917;-70
2021/07/12 14:41:07;;;;;;;2.05;1.80;;;;;;;22.43;100.00;100966.80;1946125;74;31543;-71
2021/07/12 14:46:32;;;;;;;3.87;2.05;;;;;;;22.48;100.00;100966.55;1970310;72;30979;-71
2021/07/12 14:51:56;;;;;;;2.10;1.82;;;;;;;22.36;100.00;100964.61;1970287;72;30976;-72
2021/07/12 14:57:20;;;;;;;2.47;2.27;;;;;;;22.42;100.00;100963.77;1970385;73;31634;-71
2021/07/12 15:02:46;;;;;;;2.58;1.80;;;;;;;22.40;100.00;100968.37;1970358;73;31053;-71
2021/07/12 15:08:10;;;;;;;1.90;1.80;;;;;;;22.36;100.00;100960.38;1970596;72;31086;-70
2021/07/12 15:13:36;;;;;;;2.00;1.62;;;;;;;22.28;100.00;100962.78;1970462;72;31041;-71
2021/07/12 15:19:01;;;;;;;2.17;1.98;;;;;;;22.22;100.00;100967.86;1970448;72;30929;-71
2021/07/12 15:24:27;;;;;;;2.40;2.20;;;;;;;22.41;100.00;100970.02;1970479;73;31563;-72
2021/07/12 15:29:50;;;;;;;3.45;2.20;;;;;;;22.58;100.00;100970.27;1970286;72;30990;-71
2021/07/12 15:35:15;;;;;;;2.37;2.17;;;;;;;22.49;100.00;100982.35;1970828;72;30925;-72
2021/07/12 15:40:39;;;;;;;2.42;2.02;;;;;;;22.51;100.00;100980.80;1970203;73;31490;-72
2021/07/12 15:46:04;;;;;;;2.00;1.80;;;;;;;22.33;100.00;100977.26;1970543;73;31530;-71
2021/07/12 15:51:29;;;;;;;2.02;1.87;;;;;;;22.14;100.00;100980.16;1970503;72;31429;-71
2021/07/12 15:56:54;;;;;;;2.40;2.20;;;;;;;22.04;100.00;100996.23;1970404;72;31073;-72
2021/07/12 16:02:18;;;;;;;2.10;1.95;;;;;;;21.79;100.00;101005.94;1970513;72;30919;-71
2021/07/12 16:07:42;;;;;;;3.30;3.00;;;;;;;21.23;100.00;101014.84;1970561;72;32098;-72
2021/07/12 16:13:09;;;;;;;3.25;2.92;;;;;;;20.70;100.00;101025.11;1970548;72;31454;-72
2021/07/12 16:18:34;;;;;;;4.30;3.55;;;;;;;20.34;100.00;101030.63;1970162;72;31030;-72
2021/07/12 16:23:58;;;;;;;3.00;2.70;;;;;;;19.98;100.00;101041.93;1970319;73;31004;-72
2021/07/12 16:29:24;;;;;;;4.13;2.60;;;;;;;19.75;100.00;101035.58;1970520;72;30998;-71
2021/07/12 16:34:49;;;;;;;2.37;2.12;;;;;;;19.62;100.00;101044.53;1970292;73;31069;-71
2021/07/12 16:40:17;;;;;;;3.13;2.00;;;;;;;19.41;100.00;101054.91;1970259;72;30988;-71
2021/07/12 16:45:43;;;;;;;2.90;2.40;;;;;;;19.43;100.00;101072.31;1970318;72;30936;-71
2021/07/12 16:51:09;;;;;;;2.70;2.30;;;;;;;19.19;100.00;101088.97;1970383;73;31560;-71
2021/07/12 16:56:33;;;;;;;6.20;3.57;;;;;;;19.25;100.00;101090.45;1970474;72;31154;-71
2021/07/12 17:01:57;;;;;;;4.93;4.43;;;;;;;18.77;100.00;101101.44;1970622;72;31522;-74
2021/07/12 17:07:22;;;;;;;5.17;4.63;;;;;;;18.33;100.00;101117.24;1970878;73;31484;-75
2021/07/12 17:12:48;;;;;;;6.77;4.33;;;;;;;18.62;100.00;101125.86;1971206;72;33671;-76
2021/07/12 17:18:13;;;;;;;7.03;5.27;;;;;;;18.57;100.00;101133.06;1971153;72;33591;-79
2021/07/12 17:23:37;;;;;;;5.67;4.43;;;;;;;18.65;100.00;101135.86;1970956;72;31079;-76
2021/07/12 17:29:01;;;;;;;5.20;4.63;;;;;;;18.52;100.00;101147.29;1971938;73;30985;-79
2021/07/12 17:34:26;;;;;;;6.80;5.00;;;;;;;18.38;100.00;101150.27;1970936;72;31108;-79
2021/07/12 17:39:53;;;;;;;8.40;5.87;;;;;;;18.32;100.00;101157.19;1971920;73;31491;-83
2021/07/12 17:45:22;;;;;;;7.50;6.30;;;;;;;18.27;100.00;101160.77;1971121;72;30960;-82
2021/07/12 17:50:44;;;;;;;6.37;5.17;;;;;;;18.25;100.00;101161.09;1971098;72;30966;-82
2021/07/12 17:56:09;;;;;;;5.17;4.67;;;;;;;18.23;100.00;101156.35;1970791;73;30937;-82
2021/07/12 18:01:39;;;;;;;5.67;3.67;;;;;;;18.04;100.00;101163.70;1971899;72;31008;-83
2021/07/12 18:07:06;;;;;;;6.97;4.00;;;;;;;17.91;100.00;101172.27;1971852;72;31017;-82
2021/07/12 18:12:33;;;;;;;5.50;4.83;;;;;;;17.85;100.00;101174.39;1972035;72;31444;-82
2021/07/12 18:17:58;;;;;;;4.87;4.30;;;;;;;17.89;100.00;101183.83;1970838;72;31452;-80
2021/07/12 18:23:23;;;;;;;6.70;4.40;;;;;;;17.75;100.00;101194.38;1971168;72;30991;-86
2021/07/12 18:28:49;;;;;;;5.27;4.77;;;;;;;17.66;100.00;101197.16;1971938;72;31072;-82
2021/07/12 18:34:14;;;;;;;6.07;5.00;;;;;;;17.65;100.00;101200.27;1971265;73;30916;-85
2021/07/12 18:39:42;;;;;;;6.33;5.13;;;;;;;17.46;100.00;101192.05;1972070;72;30993;-85
2021/07/12 18:45:12;;;;;;;4.03;3.73;;;;;;;17.63;100.00;101197.78;1972131;72;31451;-82
2021/07/12 18:50:38;;;;;;;5.37;4.50;;;;;;;17.49;100.00;101198.45;1971763;72;31027;-79
2021/07/12 18:56:06;;;;;;;6.17;5.20;;;;;;;17.82;100.00;101187.70;1971772;72;31025;-79
2021/07/12 19:01:33;;;;;;;5.87;4.87;;;;;;;17.78;100.00;101188.67;1971709;73;31047;-82
2021/07/12 19:06:57;;;;;;;5.87;5.07;;;;;;;17.81;100.00;101186.03;1971567;72;31552;-76
2021/07/12 19:12:21;;;;;;;7.63;5.33;;;;;;;17.66;100.00;101187.89;1971113;73;30943;-73
2021/07/12 19:17:47;;;;;;;6.90;4.90;;;;;;;17.76;100.00;101194.60;1971457;72;31514;-79
2021/07/12 19:23:12;;;;;;;6.33;5.73;;;;;;;17.93;100.00;101199.45;1971069;72;33454;-77
2021/07/12 19:28:39;;;;;;;8.17;6.07;;;;;;;17.92;100.00;101209.06;1971438;73;31488;-74
2021/07/12 19:34:07;;;;;;;5.80;5.30;;;;;;;17.93;100.00;101214.91;1971211;73;30937;-80
2021/07/12 19:39:32;;;;;;;6.37;5.57;;;;;;;17.93;100.00;101212.09;1971219;73;30936;-78
2021/07/12 19:44:57;;;;;;;7.33;5.83;;;;;;;18.01;100.00;101224.77;1971399;72;31020;-78
2021/07/12 19:50:24;;;;;;;7.40;6.23;;;;;;;17.77;100.00;101246.85;1970956;73;30975;-72
2021/07/12 19:55:51;;;;;;;8.67;5.83;;;;;;;17.78;100.00;101249.92;1971147;73;30916;-72
2021/07/12 20:01:20;;;;;;;10.47;7.00;;;;;;;17.71;100.00;101254.58;1971036;72;31002;-79
2021/07/12 20:06:45;;;;;;;9.00;6.50;;;;;;;17.86;100.00;101258.13;1970811;73;31031;-73
2021/07/12 20:12:10;;;;;;;10.07;6.27;;;;;;;17.73;100.00;101262.12;1971068;73;30938;-76
2021/07/12 20:17:36;;;;;;;10.10;6.60;;;;;;;17.98;100.00;101278.84;1970950;72;31033;-74
2021/07/12 20:23:08;;;;;;;8.57;6.90;;;;;;;17.73;100.00;101270.56;1971200;72;33503;-79
2021/07/12 20:28:34;;;;;;;8.07;6.70;;;;;;;17.71;100.00;101266.42;1971221;72;31498;-75
2021/07/12 20:34:02;;;;;;;7.77;7.00;;;;;;;17.89;100.00;101286.98;1971056;73;30985;-75
2021/07/12 20:39:28;;;;;;;7.93;6.90;;;;;;;17.91;100.00;101295.94;1970826;73;30993;-75
2021/07/12 20:45:17;;;;;;;8.13;6.70;;;;;;;17.83;100.00;101293.34;1946749;74;31065;-72
2021/07/12 20:50:51;;;;;;;6.93;6.23;;;;;;;17.87;100.00;101297.73;1970891;72;31001;-75
2021/07/12 20:56:41;;;;;;;6.80;6.20;;;;;;;17.86;100.00;101299.71;1946417;73;31049;-75
2021/07/12 21:02:06;;;;;;;6.23;5.63;;;;;;;17.78;100.00;101298.27;1970990;72;30992;-74
2021/07/12 21:07:31;;;;;;;5.97;5.37;;;;;;;17.92;100.00;101294.79;1970974;72;31510;-74
2021/07/12 21:13:14;;;;;;;7.03;6.40;;;;;;;17.87;100.00;101298.56;1946680;73;31071;-73
2021/07/12 21:18:59;;;;;;;6.47;5.83;;;;;;;17.74;100.00;101293.87;1946624;74;31019;-73
2021/07/12 21:24:25;;;;;;;7.17;6.57;;;;;;;17.65;100.00;101292.98;1970881;73;31015;-73
2021/07/12 21:29:52;;;;;;;6.27;5.60;;;;;;;17.59;100.00;101292.29;1970726;73;30975;-74
2021/07/12 21:35:18;;;;;;;6.50;5.90;;;;;;;17.61;100.00;101294.22;1971217;72;30966;-74
2021/07/12 21:40:44;;;;;;;8.80;6.40;;;;;;;17.54;100.00;101292.98;1971201;72;31549;-73
2021/07/12 21:46:08;;;;;;;6.70;6.00;;;;;;;17.49;100.00;101292.55;1971078;72;33441;-74
2021/07/12 21:51:34;;;;;;;6.70;6.20;;;;;;;17.45;100.00;101291.53;1970787;72;31133;-73
2021/07/12 21:56:59;;;;;;;5.57;5.17;;;;;;;17.52;100.00;101291.89;1970891;72;30980;-75
2021/07/12 22:02:23;;;;;;;6.67;5.40;;;;;;;17.47;100.00;101294.00;1971083;73;30918;-75
2021/07/12 22:07:49;;;;;;;5.53;5.03;;;;;;;17.48;100.00;101294.26;1970787;72;31168;-74
2021/07/12 22:13:14;;;;;;;5.63;5.00;;;;;;;17.52;100.00;101289.08;1970859;73;33613;-74
2021/07/12 22:18:39;;;;;;;6.10;4.77;;;;;;;17.61;100.00;101291.98;1971102;72;30985;-74
2021/07/12 22:24:07;;;;;;;4.90;4.40;;;;;;;17.50;100.00;101294.18;1971138;72;31060;-77
2021/07/12 22:29:32;;;;;;;6.53;4.60;;;;;;;17.52;100.00;101300.89;1970896;73;31085;-75
2021/07/12 22:34:56;;;;;;;5.83;4.53;;;;;;;17.23;100.00;101303.59;1971156;73;31416;-75
2021/07/12 22:40:21;;;;;;;5.73;5.13;;;;;;;17.29;100.00;101316.34;1971026;73;30957;-74
2021/07/12 22:45:51;;;;;;;4.87;4.43;;;;;;;17.09;100.00;101317.42;1971179;73;30973;-78
2021/07/12 22:51:15;;;;;;;5.83;4.77;;;;;;;17.08;100.00;101326.41;1971115;72;31004;-75
2021/07/12 22:56:39;;;;;;;4.90;4.50;;;;;;;17.13;100.00;101334.72;1970855;73;30940;-75
2021/07/12 23:02:04;;;;;;;4.17;3.80;;;;;;;17.34;100.00;101325.78;1971156;72;31073;-78
2021/07/12 23:07:33;;;;;;;4.30;3.90;;;;;;;17.30;100.00;101326.44;1971303;72;31550;-78
2021/07/12 23:13:00;;;;;;;5.03;4.37;;;;;;;17.33;100.00;101322.14;1971247;72;31578;-74
2021/07/12 23:18:24;;;;;;;4.80;4.30;;;;;;;17.35;100.00;101317.63;1971130;73;31530;-78
2021/07/12 23:23:48;;;;;;;4.97;4.47;;;;;;;17.28;100.00;101324.50;1971124;73;31424;-73